createdAt,value
2016-04-05T00:00:12.839Z,12.78
2016-04-05T00:01:12.889Z,12.76
2016-04-05T00:02:12.938Z,12.73
2016-04-05T00:03:12.972Z,12.78
2016-04-05T00:04:13.007Z,12.8
2016-04-05T00:05:13.057Z,12.78
2016-04-05T00:06:13.090Z,12.73
2016-04-05T00:07:13.125Z,12.61
2016-04-05T00:08:13.143Z,12.64
2016-04-05T00:09:13.208Z,12.61
2016-04-05T00:10:13.226Z,12.6
2016-04-05T00:11:13.260Z,12.55
2016-04-05T00:12:13.310Z,12.57
2016-04-05T00:13:13.343Z,12.58
2016-04-05T00:14:13.456Z,12.58
2016-04-05T00:15:13.411Z,12.57
2016-04-05T00:16:13.461Z,12.57
2016-04-05T00:17:13.495Z,12.58
2016-04-05T00:18:13.528Z,12.54
2016-04-05T00:19:13.563Z,12.61
2016-04-05T00:20:13.612Z,12.73
2016-04-05T00:21:13.646Z,12.64
2016-04-05T00:22:13.524Z,12.83
2016-04-05T00:23:13.714Z,12.78
2016-04-05T00:24:13.764Z,12.79
2016-04-05T00:25:13.797Z,12.61
2016-04-05T00:26:13.831Z,12.6
2016-04-05T00:27:13.881Z,12.72
2016-04-05T00:28:13.900Z,12.68
2016-04-05T00:29:14.043Z,12.61
2016-04-05T00:30:13.967Z,12.6
2016-04-05T00:31:14.017Z,12.61
2016-04-05T00:32:14.067Z,12.65
2016-04-05T00:33:14.101Z,12.7
2016-04-05T00:34:14.135Z,12.67
2016-04-05T00:35:14.169Z,12.6
2016-04-05T00:36:14.202Z,12.6
2016-04-05T00:37:14.252Z,12.64
2016-04-05T00:38:14.285Z,12.57
2016-04-05T00:39:14.335Z,12.62
2016-04-05T00:40:14.385Z,12.6
2016-04-05T00:41:14.388Z,12.58
2016-04-05T00:42:14.438Z,12.55
2016-04-05T00:43:14.471Z,12.54
2016-04-05T00:44:14.521Z,12.6
2016-04-05T00:45:14.554Z,12.61
2016-04-05T00:46:14.588Z,12.76
2016-04-05T00:47:14.623Z,12.7
2016-04-05T00:48:14.672Z,12.61
2016-04-05T00:49:14.706Z,12.58
2016-04-05T00:50:14.739Z,12.65
2016-04-05T00:51:14.773Z,12.61
2016-04-05T00:52:14.808Z,12.58
2016-04-05T00:53:14.841Z,12.55
2016-04-05T00:54:14.907Z,12.55
2016-04-05T00:55:14.925Z,12.58
2016-04-05T00:56:14.959Z,12.5
2016-04-05T00:57:15.009Z,12.5
2016-04-05T00:58:15.042Z,12.43
2016-04-05T00:59:15.077Z,12.47
2016-04-05T01:00:15.110Z,12.46
2016-04-05T01:01:15.144Z,12.4
2016-04-05T01:02:15.194Z,12.53
2016-04-05T01:03:15.213Z,12.53
2016-04-05T01:04:15.278Z,12.54
2016-04-05T01:05:15.297Z,12.37
2016-04-05T01:06:15.361Z,12.47
2016-04-05T01:07:15.380Z,12.4
2016-04-05T01:08:15.413Z,12.39
2016-04-05T01:09:15.447Z,12.43
2016-04-05T01:10:15.497Z,12.42
2016-04-05T01:11:15.530Z,12.45
2016-04-05T01:12:15.565Z,12.5
2016-04-05T01:13:15.598Z,12.54
2016-04-05T01:14:15.632Z,12.57
2016-04-05T01:15:15.682Z,12.43
2016-04-05T01:16:15.715Z,12.55
2016-04-05T01:17:15.750Z,12.49
2016-04-05T01:18:15.799Z,12.61
2016-04-05T01:19:15.834Z,12.65
2016-04-05T01:20:15.852Z,12.53
2016-04-05T01:21:15.901Z,12.6
2016-04-05T01:22:15.951Z,12.64
2016-04-05T01:23:15.984Z,12.6
2016-04-05T01:24:16.019Z,12.57
2016-04-05T01:25:16.053Z,12.64
2016-04-05T01:26:16.086Z,12.6
2016-04-05T01:27:16.120Z,12.7
2016-04-05T01:28:16.155Z,12.57
2016-04-05T01:29:16.219Z,12.61
2016-04-05T01:30:16.253Z,12.58
2016-04-05T01:31:16.272Z,12.61
2016-04-05T01:32:16.322Z,12.55
2016-04-05T01:33:16.356Z,12.68
2016-04-05T01:34:16.389Z,12.72
2016-04-05T01:35:16.439Z,12.76
2016-04-05T01:36:16.457Z,12.61
2016-04-05T01:37:16.491Z,12.62
2016-04-05T01:38:16.541Z,12.62
2016-04-05T01:39:16.574Z,12.55
2016-04-05T01:40:16.609Z,12.64
2016-04-05T01:41:16.643Z,12.73
2016-04-05T01:42:16.693Z,12.8
2016-04-05T01:43:16.727Z,12.72
2016-04-05T01:44:16.760Z,12.73
2016-04-05T01:45:16.810Z,12.58
2016-04-05T01:46:16.724Z,12.73
2016-04-05T01:47:16.873Z,12.58
2016-04-05T01:48:16.907Z,12.61
2016-04-05T01:49:17.166Z,12.6
2016-04-05T01:50:16.982Z,12.57
2016-04-05T01:51:17.062Z,12.61
2016-04-05T01:52:17.065Z,12.62
2016-04-05T01:53:17.099Z,12.55
2016-04-05T01:54:17.133Z,12.64
2016-04-05T01:55:17.168Z,12.58
2016-04-05T01:56:17.201Z,12.54
2016-04-05T01:57:17.251Z,12.55
2016-04-05T01:58:17.284Z,12.57
2016-04-05T01:59:17.319Z,12.54
2016-04-05T02:00:17.368Z,12.62
2016-04-05T02:01:17.387Z,12.73
2016-04-05T02:02:17.436Z,12.73
2016-04-05T02:03:17.486Z,12.55
2016-04-05T02:04:17.520Z,12.64
2016-04-05T02:05:17.554Z,12.73
2016-04-05T02:06:17.589Z,12.68
2016-04-05T02:07:17.622Z,12.75
2016-04-05T02:08:17.661Z,12.75
2016-04-05T02:09:17.695Z,12.76
2016-04-05T02:10:17.728Z,12.72
2016-04-05T02:11:17.763Z,12.73
2016-04-05T02:12:17.812Z,12.68
2016-04-05T02:13:17.846Z,12.53
2016-04-05T02:14:17.880Z,12.6
2016-04-05T02:15:17.929Z,12.55
2016-04-05T02:16:17.963Z,12.73
2016-04-05T02:17:17.996Z,12.72
2016-04-05T02:18:18.046Z,12.65
2016-04-05T02:19:18.081Z,12.73
2016-04-05T02:20:18.099Z,12.65
2016-04-05T02:21:18.149Z,12.7
2016-04-05T02:22:18.182Z,12.6
2016-04-05T02:23:18.232Z,12.58
2016-04-05T02:24:18.251Z,12.65
2016-04-05T02:25:18.300Z,12.6
2016-04-05T02:26:18.334Z,12.64
2016-04-05T02:27:18.367Z,12.85
2016-04-05T02:28:18.401Z,12.72
2016-04-05T02:29:18.451Z,12.64
2016-04-05T02:30:18.485Z,12.72
2016-04-05T02:31:18.535Z,12.65
2016-04-05T02:32:18.553Z,12.61
2016-04-05T02:33:18.587Z,12.65
2016-04-05T02:34:18.621Z,12.58
2016-04-05T02:35:18.686Z,12.61
2016-04-05T02:36:18.720Z,12.79
2016-04-05T02:37:18.755Z,12.78
2016-04-05T02:38:18.772Z,12.8
2016-04-05T02:39:18.822Z,12.68
2016-04-05T02:40:18.855Z,12.75
2016-04-05T02:41:18.890Z,12.79
2016-04-05T02:42:18.955Z,12.65
2016-04-05T02:43:18.988Z,12.75
2016-04-05T02:44:19.008Z,12.64
2016-04-05T02:45:19.056Z,12.64
2016-04-05T02:46:19.077Z,12.57
2016-04-05T02:47:19.098Z,12.57
2016-04-05T02:48:19.120Z,12.58
2016-04-05T02:49:19.141Z,12.43
2016-04-05T02:50:19.162Z,12.62
2016-04-05T02:51:19.224Z,12.6
2016-04-05T02:52:19.237Z,12.57
2016-04-05T02:53:19.282Z,12.57
2016-04-05T02:54:19.139Z,12.58
2016-04-05T02:55:19.342Z,12.67
2016-04-05T02:56:19.374Z,12.54
2016-04-05T02:57:19.406Z,12.6
2016-04-05T02:58:19.438Z,12.46
2016-04-05T02:59:19.471Z,12.61
2016-04-05T03:00:19.518Z,12.58
2016-04-05T03:01:19.567Z,12.54
2016-04-05T03:02:19.585Z,12.55
2016-04-05T03:03:19.634Z,12.57
2016-04-05T03:04:19.651Z,12.62
2016-04-05T03:05:19.700Z,12.53
2016-04-05T03:06:19.735Z,12.4
2016-04-05T03:07:19.783Z,12.37
2016-04-05T03:08:19.818Z,12.42
2016-04-05T03:09:19.852Z,12.45
2016-04-05T03:10:19.902Z,12.53
2016-04-05T03:11:19.936Z,12.45
2016-04-05T03:12:19.969Z,12.46
2016-04-05T03:13:20.004Z,12.57
2016-04-05T03:14:20.038Z,12.47
2016-04-05T03:15:20.071Z,12.43
2016-04-05T03:16:20.121Z,12.47
2016-04-05T03:17:20.155Z,12.54
2016-04-05T03:18:20.188Z,12.57
2016-04-05T03:19:20.238Z,12.57
2016-04-05T03:20:20.272Z,12.57
2016-04-05T03:21:20.321Z,12.5
2016-04-05T03:22:20.356Z,12.5
2016-04-05T03:23:20.390Z,12.58
2016-04-05T03:24:20.408Z,12.47
2016-04-05T03:25:20.457Z,12.47
2016-04-05T03:26:20.492Z,12.39
2016-04-05T03:27:20.526Z,12.37
2016-04-05T03:28:20.559Z,12.27
2016-04-05T03:29:20.593Z,12.27
2016-04-05T03:30:20.643Z,12.28
2016-04-05T03:31:20.693Z,12.27
2016-04-05T03:32:20.712Z,12.27
2016-04-05T03:33:20.761Z,12.28
2016-04-05T03:34:20.795Z,12.43
2016-04-05T03:35:20.829Z,12.58
2016-04-05T03:36:20.860Z,12.5
2016-04-05T03:37:20.894Z,12.46
2016-04-05T03:38:20.943Z,12.37
2016-04-05T03:39:20.962Z,12.39
2016-04-05T03:40:21.011Z,12.39
2016-04-05T03:41:21.045Z,12.46
2016-04-05T03:42:21.094Z,12.45
2016-04-05T03:43:21.129Z,12.47
2016-04-05T03:44:21.163Z,12.37
2016-04-05T03:45:21.197Z,12.27
2016-04-05T03:46:21.230Z,12.24
2016-04-05T03:47:21.265Z,12.27
2016-04-05T03:48:21.314Z,12.31
2016-04-05T03:49:21.349Z,12.25
2016-04-05T03:50:21.382Z,12.27
2016-04-05T03:51:21.416Z,12.21
2016-04-05T03:52:21.465Z,12.27
2016-04-05T03:53:21.484Z,12.32
2016-04-05T03:54:21.534Z,12.25
2016-04-05T03:55:21.568Z,12.29
2016-04-05T03:56:21.602Z,12.31
2016-04-05T03:57:21.651Z,12.37
2016-04-05T03:58:21.685Z,12.46
2016-04-05T03:59:21.718Z,12.54
2016-04-05T04:00:21.753Z,12.54
2016-04-05T04:01:21.786Z,12.61
2016-04-05T04:02:21.836Z,12.58
2016-04-05T04:03:21.870Z,12.6
2016-04-05T04:04:21.903Z,12.6
2016-04-05T04:05:21.953Z,12.58
2016-04-05T04:06:21.972Z,12.53
2016-04-05T04:07:22.022Z,12.58
2016-04-05T04:08:22.056Z,12.58
2016-04-05T04:09:22.089Z,12.62
2016-04-05T04:10:22.139Z,12.61
2016-04-05T04:11:22.158Z,12.61
2016-04-05T04:12:22.208Z,12.62
2016-04-05T04:13:22.256Z,12.61
2016-04-05T04:14:22.275Z,12.58
2016-04-05T04:15:22.324Z,12.67
2016-04-05T04:16:22.358Z,12.55
2016-04-05T04:17:22.392Z,12.5
2016-04-05T04:18:22.426Z,12.47
2016-04-05T04:19:22.476Z,12.54
2016-04-05T04:20:22.510Z,12.5
2016-04-05T04:21:22.543Z,12.54
2016-04-05T04:22:22.577Z,12.43
2016-04-05T04:23:22.611Z,12.32
2016-04-05T04:24:22.660Z,12.27
2016-04-05T04:25:22.695Z,12.35
2016-04-05T04:26:22.729Z,12.22
2016-04-05T04:27:22.763Z,12.32
2016-04-05T04:28:22.796Z,12.35
2016-04-05T04:29:22.846Z,12.43
2016-04-05T04:30:22.911Z,12.36
2016-04-05T04:31:22.929Z,12.36
2016-04-05T04:32:22.995Z,12.24
2016-04-05T04:33:23.014Z,12.24
2016-04-05T04:34:23.048Z,12.25
2016-04-05T04:35:23.065Z,12.04
2016-04-05T04:36:23.099Z,12.18
2016-04-05T04:37:23.134Z,12.24
2016-04-05T04:38:23.167Z,12.31
2016-04-05T04:39:23.217Z,12.39
2016-04-05T04:40:23.251Z,12.36
2016-04-05T04:41:23.300Z,12.35
2016-04-05T04:42:23.334Z,12.32
2016-04-05T04:43:23.384Z,12.27
2016-04-05T04:44:23.402Z,12.24
2016-04-05T04:45:23.436Z,12.32
2016-04-05T04:46:23.470Z,12.28
2016-04-05T04:47:23.505Z,12.32
2016-04-05T04:48:23.569Z,12.35
2016-04-05T04:49:23.603Z,12.32
2016-04-05T04:50:23.621Z,12.17
2016-04-05T04:51:23.655Z,12.27
2016-04-05T04:52:23.690Z,12.18
2016-04-05T04:53:23.738Z,12.28
2016-04-05T04:54:23.774Z,12.24
2016-04-05T04:55:23.807Z,12.29
2016-04-05T04:56:23.840Z,12.27
2016-04-05T04:57:23.875Z,12.24
2016-04-05T04:58:23.909Z,12.29
2016-04-05T04:59:23.959Z,12.22
2016-04-05T05:00:23.992Z,12.29
2016-04-05T05:01:24.042Z,12.27
2016-04-05T05:02:24.060Z,12.31
2016-04-05T05:03:24.109Z,12.35
2016-04-05T05:04:24.143Z,12.39
2016-04-05T05:05:24.178Z,12.46
2016-04-05T05:06:24.211Z,12.45
2016-04-05T05:07:24.261Z,12.47
2016-04-05T05:08:24.326Z,12.47
2016-04-05T05:09:24.329Z,12.47
2016-04-05T05:10:24.378Z,12.57
2016-04-05T05:11:24.397Z,12.53
2016-04-05T05:12:24.447Z,12.42
2016-04-05T05:13:24.480Z,12.42
2016-04-05T05:14:24.514Z,12.39
2016-04-05T05:15:24.798Z,12.49
2016-04-05T05:16:24.583Z,12.55
2016-04-05T05:17:24.632Z,12.55
2016-04-05T05:18:24.680Z,12.57
2016-04-05T05:19:24.716Z,12.57
2016-04-05T05:20:24.733Z,12.55
2016-04-05T05:21:24.782Z,12.5
2016-04-05T05:22:24.802Z,12.57
2016-04-05T05:23:24.851Z,12.61
2016-04-05T05:24:24.901Z,12.6
2016-04-05T05:25:24.919Z,12.47
2016-04-05T05:26:24.968Z,12.5
2016-04-05T05:27:24.987Z,12.54
2016-04-05T05:28:25.052Z,12.5
2016-04-05T05:29:25.071Z,12.55
2016-04-05T05:30:25.354Z,12.54
2016-04-05T05:31:25.154Z,12.57
2016-04-05T05:32:25.187Z,12.49
2016-04-05T05:33:25.221Z,12.5
2016-04-05T05:34:25.256Z,12.58
2016-04-05T05:35:25.320Z,12.54
2016-04-05T05:36:25.339Z,12.6
2016-04-05T05:37:25.357Z,12.6
2016-04-05T05:38:25.406Z,12.62
2016-04-05T05:39:25.442Z,12.6
2016-04-05T05:40:25.490Z,12.6
2016-04-05T05:41:25.524Z,12.61
2016-04-05T05:42:25.559Z,12.6
2016-04-05T05:43:25.592Z,12.55
2016-04-05T05:44:25.626Z,12.57
2016-04-05T05:45:25.770Z,12.57
2016-04-05T05:46:25.694Z,12.58
2016-04-05T05:47:25.728Z,12.61
2016-04-05T05:48:25.777Z,12.6
2016-04-05T05:49:25.811Z,12.61
2016-04-05T05:50:25.860Z,12.6
2016-04-05T05:51:25.879Z,12.46
2016-04-05T05:52:25.929Z,12.5
2016-04-05T05:53:25.963Z,12.53
2016-04-05T05:54:25.997Z,12.43
2016-04-05T05:55:26.046Z,12.49
2016-04-05T05:56:26.065Z,12.62
2016-04-05T05:57:26.099Z,12.7
2016-04-05T05:58:26.163Z,12.62
2016-04-05T05:59:26.182Z,12.57
2016-04-05T06:00:26.279Z,12.61
2016-04-05T06:01:26.266Z,12.68
2016-04-05T06:02:26.299Z,12.6
2016-04-05T06:03:26.333Z,12.64
2016-04-05T06:04:26.384Z,12.78
2016-04-05T06:05:26.417Z,12.73
2016-04-05T06:06:26.450Z,12.68
2016-04-05T06:07:26.485Z,12.73
2016-04-05T06:08:26.550Z,12.75
2016-04-05T06:09:26.553Z,12.78
2016-04-05T06:10:26.603Z,12.76
2016-04-05T06:11:26.636Z,12.73
2016-04-05T06:12:26.670Z,12.79
2016-04-05T06:13:26.720Z,12.8
2016-04-05T06:14:26.738Z,12.75
2016-04-05T06:15:26.944Z,12.7
2016-04-05T06:16:26.822Z,12.73
2016-04-05T06:17:26.855Z,12.75
2016-04-05T06:18:26.889Z,12.76
2016-04-05T06:19:26.939Z,12.8
2016-04-05T06:20:26.972Z,12.78
2016-04-05T06:21:27.007Z,12.79
2016-04-05T06:22:27.057Z,12.9
2016-04-05T06:23:27.091Z,12.9
2016-04-05T06:24:27.125Z,12.9
2016-04-05T06:25:27.080Z,12.91
2016-04-05T06:26:27.067Z,12.79
2016-04-05T06:27:27.227Z,12.95
2016-04-05T06:28:27.260Z,12.76
2016-04-05T06:29:27.309Z,12.8
2016-04-05T06:30:27.438Z,12.8
2016-04-05T06:31:27.377Z,12.78
2016-04-05T06:32:27.412Z,12.78
2016-04-05T06:33:27.476Z,12.79
2016-04-05T06:34:27.495Z,12.93
2016-04-05T06:35:27.545Z,12.94
2016-04-05T06:36:27.578Z,12.9
2016-04-05T06:37:27.628Z,12.87
2016-04-05T06:38:27.631Z,12.78
2016-04-05T06:39:27.681Z,12.83
2016-04-05T06:40:27.714Z,12.91
2016-04-05T06:41:27.764Z,12.93
2016-04-05T06:42:27.798Z,13
2016-04-05T06:43:27.831Z,12.95
2016-04-05T06:44:27.866Z,13.01
2016-04-05T06:45:28.040Z,13.01
2016-04-05T06:46:27.950Z,13.11
2016-04-05T06:47:27.983Z,13.13
2016-04-05T06:48:28.016Z,13.16
2016-04-05T06:49:28.067Z,12.98
2016-04-05T06:50:28.116Z,13.03
2016-04-05T06:51:28.135Z,12.97
2016-04-05T06:52:28.169Z,12.98
2016-04-05T06:53:28.202Z,13
2016-04-05T06:54:28.252Z,12.95
2016-04-05T06:55:28.286Z,12.98
2016-04-05T06:56:28.335Z,13.03
2016-04-05T06:57:28.369Z,12.91
2016-04-05T06:58:28.404Z,12.95
2016-04-05T06:59:28.421Z,13
2016-04-05T07:00:28.534Z,12.97
2016-04-05T07:01:28.505Z,13
2016-04-05T07:02:28.554Z,13.03
2016-04-05T07:03:28.588Z,13.03
2016-04-05T07:04:28.623Z,13.05
2016-04-05T07:05:28.656Z,13.04
2016-04-05T07:06:28.721Z,12.9
2016-04-05T07:07:28.773Z,13.04
2016-04-05T07:08:28.775Z,13.05
2016-04-05T07:09:28.825Z,13.04
2016-04-05T07:10:28.859Z,13.13
2016-04-05T07:11:28.893Z,13.16
2016-04-05T07:12:28.927Z,13.19
2016-04-05T07:13:28.961Z,13.15
2016-04-05T07:14:28.995Z,13.28
2016-04-05T07:15:29.044Z,13.15
2016-04-05T07:16:29.063Z,13.13
2016-04-05T07:17:29.113Z,13.19
2016-04-05T07:18:29.147Z,13.18
2016-04-05T07:19:29.180Z,13.2
2016-04-05T07:20:29.214Z,13.18
2016-04-05T07:21:29.296Z,13.08
2016-04-05T07:22:29.298Z,13.05
2016-04-05T07:23:29.332Z,13.18
2016-04-05T07:24:29.397Z,13.3
2016-04-05T07:25:29.431Z,13.3
2016-04-05T07:26:29.480Z,13.28
2016-04-05T07:27:29.498Z,13.31
2016-04-05T07:28:29.532Z,13.33
2016-04-05T07:29:29.567Z,13.46
2016-04-05T07:30:29.584Z,13.39
2016-04-05T07:31:29.635Z,13.39
2016-04-05T07:32:29.684Z,13.5
2016-04-05T07:33:29.702Z,13.5
2016-04-05T07:34:29.751Z,13.62
2016-04-05T07:35:29.801Z,13.59
2016-04-05T07:36:29.836Z,13.52
2016-04-05T07:37:29.869Z,13.5
2016-04-05T07:38:29.904Z,13.54
2016-04-05T07:39:29.937Z,13.56
2016-04-05T07:40:29.971Z,13.68
2016-04-05T07:41:30.020Z,13.62
2016-04-05T07:42:30.070Z,13.57
2016-04-05T07:43:30.105Z,13.63
2016-04-05T07:44:30.138Z,13.6
2016-04-05T07:45:30.188Z,13.6
2016-04-05T07:46:30.222Z,13.59
2016-04-05T07:47:30.240Z,13.59
2016-04-05T07:48:30.289Z,13.52
2016-04-05T07:49:30.324Z,13.54
2016-04-05T07:50:30.389Z,13.62
2016-04-05T07:51:30.407Z,13.6
2016-04-05T07:52:30.425Z,13.56
2016-04-05T07:53:30.507Z,13.62
2016-04-05T07:54:30.509Z,13.6
2016-04-05T07:55:30.558Z,13.71
2016-04-05T07:56:30.593Z,13.57
2016-04-05T07:57:30.626Z,13.47
2016-04-05T07:58:30.676Z,13.59
2016-04-05T07:59:30.694Z,13.62
2016-04-05T08:00:30.743Z,13.7
2016-04-05T08:01:30.793Z,13.81
2016-04-05T08:02:30.826Z,13.65
2016-04-05T08:03:30.862Z,13.85
2016-04-05T08:04:30.895Z,13.75
2016-04-05T08:05:30.945Z,13.87
2016-04-05T08:06:30.979Z,13.78
2016-04-05T08:07:31.012Z,13.72
2016-04-05T08:08:31.078Z,13.85
2016-04-05T08:09:31.096Z,13.96
2016-04-05T08:10:31.130Z,13.92
2016-04-05T08:11:31.164Z,14.03
2016-04-05T08:12:31.197Z,14.11
2016-04-05T08:13:31.232Z,14.08
2016-04-05T08:14:31.281Z,14
2016-04-05T08:15:31.316Z,13.97
2016-04-05T08:16:31.349Z,13.89
2016-04-05T08:17:31.399Z,14.11
2016-04-05T08:18:31.449Z,14.07
2016-04-05T08:19:31.466Z,14.05
2016-04-05T08:20:31.517Z,14.1
2016-04-05T08:21:31.550Z,14.04
2016-04-05T08:22:31.584Z,14.1
2016-04-05T08:23:31.633Z,14.29
2016-04-05T08:24:31.667Z,14.23
2016-04-05T08:25:31.702Z,14.3
2016-04-05T08:26:31.735Z,14.29
2016-04-05T08:27:31.785Z,14.36
2016-04-05T08:28:31.835Z,14.41
2016-04-05T08:29:31.853Z,14.35
2016-04-05T08:30:31.887Z,14.45
2016-04-05T08:31:31.952Z,14.44
2016-04-05T08:32:31.970Z,14.58
2016-04-05T08:33:32.020Z,14.54
2016-04-05T08:34:32.054Z,14.58
2016-04-05T08:35:32.104Z,14.58
2016-04-05T08:36:32.137Z,14.63
2016-04-05T08:37:32.171Z,14.62
2016-04-05T08:38:32.205Z,14.66
2016-04-05T08:39:32.239Z,14.58
2016-04-05T08:40:32.289Z,14.62
2016-04-05T08:41:32.338Z,14.5
2016-04-05T08:42:32.357Z,14.68
2016-04-05T08:43:32.391Z,14.51
2016-04-05T08:44:32.439Z,14.55
2016-04-05T08:45:32.474Z,14.43
2016-04-05T08:46:32.524Z,14.47
2016-04-05T08:47:32.558Z,14.6
2016-04-05T08:48:32.591Z,14.54
2016-04-05T08:49:32.658Z,14.4
2016-04-05T08:50:32.675Z,14.45
2016-04-05T08:51:32.724Z,14.45
2016-04-05T08:52:32.774Z,14.47
2016-04-05T08:53:32.792Z,14.51
2016-04-05T08:54:32.842Z,14.58
2016-04-05T08:55:32.876Z,14.62
2016-04-05T08:56:32.910Z,14.73
2016-04-05T08:57:32.944Z,14.69
2016-04-05T08:58:32.993Z,14.65
2016-04-05T08:59:33.043Z,14.72
2016-04-05T09:00:33.062Z,14.62
2016-04-05T09:01:33.095Z,14.59
2016-04-05T09:02:33.176Z,14.55
2016-04-05T09:03:33.195Z,14.62
2016-04-05T09:04:33.229Z,14.63
2016-04-05T09:05:33.262Z,14.58
2016-04-05T09:06:33.312Z,14.43
2016-04-05T09:07:33.345Z,14.4
2016-04-05T09:08:33.395Z,14.45
2016-04-05T09:09:33.419Z,14.6
2016-04-05T09:10:33.467Z,14.43
2016-04-05T09:11:33.487Z,14.35
2016-04-05T09:12:33.536Z,14.45
2016-04-05T09:13:33.570Z,14.47
2016-04-05T09:14:33.619Z,14.5
2016-04-05T09:15:33.653Z,14.45
2016-04-05T09:16:33.703Z,14.48
2016-04-05T09:17:33.736Z,14.53
2016-04-05T09:18:33.771Z,14.58
2016-04-05T09:19:33.805Z,14.59
2016-04-05T09:20:33.855Z,14.41
2016-04-05T09:21:33.888Z,14.44
2016-04-05T09:22:33.938Z,14.32
2016-04-05T09:23:33.988Z,14.33
2016-04-05T09:24:34.021Z,14.29
2016-04-05T09:25:34.055Z,14.33
2016-04-05T09:26:34.073Z,14.28
2016-04-05T09:27:34.124Z,14.32
2016-04-05T09:28:34.157Z,14.23
2016-04-05T09:29:34.191Z,14.28
2016-04-05T09:30:34.240Z,14.3
2016-04-05T09:31:34.274Z,14.18
2016-04-05T09:32:34.324Z,14.22
2016-04-05T09:33:34.358Z,14.22
2016-04-05T09:34:34.392Z,14.08
2016-04-05T09:35:34.457Z,14.03
2016-04-05T09:36:34.476Z,14.04
2016-04-05T09:37:34.510Z,14.08
2016-04-05T09:38:34.559Z,14.11
2016-04-05T09:39:34.593Z,14.08
2016-04-05T09:40:34.627Z,14.04
2016-04-05T09:41:34.676Z,14.03
2016-04-05T09:42:34.725Z,14.03
2016-04-05T09:43:34.761Z,14
2016-04-05T09:44:34.778Z,13.92
2016-04-05T09:45:34.811Z,13.78
2016-04-05T09:46:34.861Z,13.71
2016-04-05T09:47:34.927Z,13.79
2016-04-05T09:48:34.944Z,13.71
2016-04-05T09:49:34.963Z,13.87
2016-04-05T09:50:35.014Z,13.78
2016-04-05T09:51:35.047Z,13.92
2016-04-05T09:52:35.096Z,13.96
2016-04-05T09:53:35.147Z,13.95
2016-04-05T09:54:35.180Z,14.04
2016-04-05T09:55:35.199Z,14.04
2016-04-05T09:56:35.248Z,14.17
2016-04-05T09:57:35.282Z,14.1
2016-04-05T09:58:35.332Z,14.15
2016-04-05T09:59:35.365Z,14.17
2016-04-05T10:00:35.399Z,14.2
2016-04-05T10:01:35.433Z,14.2
2016-04-05T10:02:35.483Z,14.23
2016-04-05T10:03:35.517Z,14.35
2016-04-05T10:04:35.551Z,14.36
2016-04-05T10:05:35.647Z,14.32
2016-04-05T10:06:35.634Z,14.29
2016-04-05T10:07:35.667Z,14.3
2016-04-05T10:08:35.702Z,14.26
2016-04-05T10:09:35.767Z,14.2
2016-04-05T10:10:35.785Z,14.1
2016-04-05T10:11:35.835Z,14.23
2016-04-05T10:12:35.869Z,14.28
2016-04-05T10:13:35.903Z,14.28
2016-04-05T10:14:35.953Z,14.29
2016-04-05T10:15:35.987Z,14.3
2016-04-05T10:16:36.036Z,14.3
2016-04-05T10:17:36.070Z,14.32
2016-04-05T10:18:36.105Z,14.36
2016-04-05T10:19:36.153Z,14.29
2016-04-05T10:20:36.188Z,14.23
2016-04-05T10:21:36.221Z,14.23
2016-04-05T10:22:36.255Z,14.22
2016-04-05T10:23:36.321Z,14.37
2016-04-05T10:24:36.370Z,14.29
2016-04-05T10:25:36.389Z,14.45
2016-04-05T10:26:36.422Z,14.58
2016-04-05T10:27:36.472Z,14.77
2016-04-05T10:28:36.491Z,14.77
2016-04-05T10:29:36.540Z,14.91
2016-04-05T10:30:36.574Z,15.07
2016-04-05T10:31:36.623Z,15.11
2016-04-05T10:32:36.657Z,15.24
2016-04-05T10:33:36.707Z,15.04
2016-04-05T10:34:36.757Z,15.09
2016-04-05T10:35:36.806Z,15.04
2016-04-05T10:36:36.793Z,14.88
2016-04-05T10:37:36.842Z,14.89
2016-04-05T10:38:36.876Z,14.91
2016-04-05T10:39:36.926Z,15
2016-04-05T10:40:36.959Z,14.91
2016-04-05T10:41:36.994Z,14.81
2016-04-05T10:42:37.044Z,14.62
2016-04-05T10:43:37.077Z,14.53
2016-04-05T10:44:37.112Z,14.6
2016-04-05T10:45:37.161Z,14.48
2016-04-05T10:46:37.680Z,14.36
2016-04-05T10:47:37.228Z,14.2
2016-04-05T10:48:37.278Z,14.03
2016-04-05T10:49:37.328Z,14.11
2016-04-05T10:50:37.361Z,14.22
2016-04-05T10:51:37.411Z,14.14
2016-04-05T10:52:37.446Z,14.2
2016-04-05T10:53:37.479Z,14.25
2016-04-05T10:54:37.513Z,14.1
2016-04-05T10:55:37.562Z,14.11
2016-04-05T10:56:37.597Z,14
2016-04-05T10:57:37.646Z,14.03
2016-04-05T10:58:37.665Z,13.92
2016-04-05T10:59:37.715Z,13.9
2016-04-05T11:00:37.905Z,13.79
2016-04-05T11:01:37.798Z,13.74
2016-04-05T11:02:37.816Z,13.77
2016-04-05T11:03:37.865Z,13.78
2016-04-05T11:04:37.916Z,13.72
2016-04-05T11:05:37.949Z,13.77
2016-04-05T11:06:37.984Z,13.75
2016-04-05T11:07:38.020Z,13.85
2016-04-05T11:08:38.048Z,13.74
2016-04-05T11:09:38.083Z,13.79
2016-04-05T11:10:38.132Z,13.74
2016-04-05T11:11:38.167Z,13.68
2016-04-05T11:12:38.200Z,13.77
2016-04-05T11:13:38.265Z,13.78
2016-04-05T11:14:38.284Z,13.77
2016-04-05T11:15:38.318Z,13.74
2016-04-05T11:16:38.540Z,13.74
2016-04-05T11:17:38.401Z,13.74
2016-04-05T11:18:38.436Z,13.7
2016-04-05T11:19:38.470Z,13.77
2016-04-05T11:20:38.503Z,13.68
2016-04-05T11:21:38.553Z,13.75
2016-04-05T11:22:38.587Z,13.78
2016-04-05T11:23:38.637Z,13.78
2016-04-05T11:24:38.670Z,13.85
2016-04-05T11:25:38.704Z,13.81
2016-04-05T11:26:39.128Z,13.9
2016-04-05T11:27:38.772Z,13.9
2016-04-05T11:28:38.806Z,13.86
2016-04-05T11:29:38.856Z,13.86
2016-04-05T11:30:38.905Z,13.77
2016-04-05T11:31:38.939Z,13.75
2016-04-05T11:32:38.974Z,13.81
2016-04-05T11:33:39.007Z,13.83
2016-04-05T11:34:39.041Z,13.97
2016-04-05T11:35:39.091Z,13.96
2016-04-05T11:36:39.140Z,13.95
2016-04-05T11:37:39.190Z,13.95
2016-04-05T11:38:39.223Z,13.9
2016-04-05T11:39:39.257Z,13.9
2016-04-05T11:40:39.291Z,13.9
2016-04-05T11:41:39.325Z,13.85
2016-04-05T11:42:39.359Z,13.81
2016-04-05T11:43:39.392Z,13.85
2016-04-05T11:44:39.442Z,13.96
2016-04-05T11:45:39.492Z,13.93
2016-04-05T11:46:39.353Z,13.85
2016-04-05T11:47:39.560Z,13.87
2016-04-05T11:48:39.594Z,13.85
2016-04-05T11:49:39.644Z,13.81
2016-04-05T11:50:39.661Z,13.9
2016-04-05T11:51:39.693Z,14.08
2016-04-05T11:52:39.735Z,14.15
2016-04-05T11:53:39.775Z,14
2016-04-05T11:54:39.800Z,14.12
2016-04-05T11:55:39.841Z,14
2016-04-05T11:56:39.868Z,13.93
2016-04-05T11:57:39.914Z,14.05
2016-04-05T11:58:39.945Z,14.11
2016-04-05T11:59:39.959Z,14.05
2016-04-05T12:00:39.992Z,14.03
2016-04-05T12:01:40.037Z,14.12
2016-04-05T12:02:40.086Z,14.26
2016-04-05T12:03:40.104Z,14.33
2016-04-05T12:04:40.152Z,14.33
2016-04-05T12:05:40.184Z,14.32
2016-04-05T12:06:40.250Z,14.44
2016-04-05T12:07:40.267Z,14.5
2016-04-05T12:08:43.254Z,14.48
2016-04-05T12:09:40.334Z,14.5
2016-04-05T12:10:40.383Z,14.59
2016-04-05T12:11:40.417Z,14.79
2016-04-05T12:12:40.467Z,14.73
2016-04-05T12:13:40.484Z,14.79
2016-04-05T12:14:40.534Z,14.81
2016-04-05T12:15:40.568Z,14.84
2016-04-05T12:16:40.617Z,14.89
2016-04-05T12:17:40.652Z,14.78
2016-04-05T12:18:40.701Z,14.6
2016-04-05T12:19:40.720Z,14.63
2016-04-05T12:20:40.769Z,14.77
2016-04-05T12:21:40.803Z,14.84
2016-04-05T12:22:40.680Z,14.79
2016-04-05T12:23:40.886Z,14.77
2016-04-05T12:24:40.936Z,14.82
2016-04-05T12:25:40.970Z,14.72
2016-04-05T12:26:41.004Z,14.91
2016-04-05T12:27:41.038Z,14.84
2016-04-05T12:28:41.071Z,14.89
2016-04-05T12:29:41.122Z,14.82
2016-04-05T12:30:41.155Z,14.82
2016-04-05T12:31:41.393Z,14.6
2016-04-05T12:32:41.238Z,14.45
2016-04-05T12:33:41.288Z,14.33
2016-04-05T12:34:41.337Z,14.25
2016-04-05T12:35:41.356Z,14.2
2016-04-05T12:36:41.390Z,14.08
2016-04-05T12:37:41.440Z,13.97
2016-04-05T12:38:41.490Z,13.99
2016-04-05T12:39:41.524Z,13.9
2016-04-05T12:40:41.557Z,13.87
2016-04-05T12:41:41.591Z,13.9
2016-04-05T12:42:41.625Z,13.81
2016-04-05T12:43:41.659Z,13.83
2016-04-05T12:44:41.709Z,13.74
2016-04-05T12:45:41.743Z,13.63
2016-04-05T12:46:42.151Z,13.75
2016-04-05T12:47:41.825Z,13.71
2016-04-05T12:48:41.876Z,13.75
2016-04-05T12:49:41.910Z,13.68
2016-04-05T12:50:41.928Z,13.68
2016-04-05T12:51:41.978Z,13.59
2016-04-05T12:52:42.012Z,13.59
2016-04-05T12:53:42.045Z,13.56
2016-04-05T12:54:42.080Z,13.63
2016-04-05T12:55:42.129Z,13.54
2016-04-05T12:56:42.163Z,13.53
2016-04-05T12:57:42.212Z,13.6